Portada
METAR-TAF:

METAR-TAF

Aeropuertos :

Kédougou, Senegal

latitud: 12-34N, longitud: 012-13W, altitud: 178 m

Observación

El informe se hizo hace 49 minutos, a las 18:00 UTC
Viento 4 kt del norte
Temperatura 29°C
Humedad 70%
Presión 1009 hPa
Visibilidad 10 km o más
sin nubes por debajo de 1500 m y sin presencia de cumulonimbus.

METAR: GOTK 211800Z 36004KT CAVOK 29/23 Q1009

Hora: 18:49 (18:49 UTC)


TAF: falta

Observaciones y pronósticos meteorológicos de más de 4000 aeropuertos (mensajes METAR y TAF).

Los puntos amarillos y rojos representan las estaciones disponibles.

Ponga el ratón en el punto deseado para ver el nombre de la estación.

Haga clic para ver las observaciones y los pronósticos meteorológicos.

Para cambiar el mapa : haga clic en los botones verdes con una cruz de color negro para hacer un zoom, en el botón verde con un guión para alejar o en las flechas verdes para mapas adyacentes.


METAR-TAF: